createdAt,value
2022-10-18T00:00:57.634Z,20.08
2022-10-18T00:04:01.362Z,21.33
2022-10-18T00:07:04.498Z,20.10
2022-10-18T00:10:08.886Z,19.98
2022-10-18T00:13:12.317Z,21.25
2022-10-18T00:16:25.752Z,20.12
2022-10-18T00:19:29.476Z,20.33
2022-10-18T00:22:36.706Z,21.02
2022-10-18T00:25:39.650Z,20.73
2022-10-18T00:28:45.045Z,20.30
2022-10-18T00:31:49.393Z,20.20
2022-10-18T00:34:53.137Z,19.87
2022-10-18T00:37:56.188Z,20.62
2022-10-18T00:40:59.450Z,21.80
2022-10-18T00:44:04.794Z,20.12
2022-10-18T00:47:11.198Z,18.93
2022-10-18T00:50:14.709Z,21.17
2022-10-18T00:53:21.664Z,20.45
2022-10-18T00:56:25.172Z,20.17
2022-10-18T00:59:29.410Z,20.35
2022-10-18T01:02:33.131Z,20.12
2022-10-18T01:05:48.823Z,19.85
2022-10-18T01:09:05.635Z,20.27
2022-10-18T01:12:30.195Z,20.02
2022-10-18T01:15:33.075Z,20.30
2022-10-18T01:18:44.935Z,21.07
2022-10-18T01:21:57.735Z,21.67
2022-10-18T01:25:23.911Z,21.42
2022-10-18T01:29:00.538Z,20.97
2022-10-18T01:32:10.159Z,20.30
2022-10-18T01:35:22.624Z,20.48
2022-10-18T01:38:26.804Z,19.60
2022-10-18T01:41:30.986Z,21.33
2022-10-18T01:44:35.866Z,20.98
2022-10-18T01:47:41.506Z,21.30
2022-10-18T01:50:45.032Z,22.33
2022-10-18T01:53:48.663Z,20.15
2022-10-18T01:57:03.986Z,21.02
2022-10-18T02:00:15.066Z,21.23
2022-10-18T02:03:28.301Z,22.80
2022-10-18T02:06:38.544Z,20.73
2022-10-18T02:09:51.659Z,20.98
2022-10-18T02:12:57.390Z,20.83
2022-10-18T02:16:07.952Z,19.77
2022-10-18T02:19:22.828Z,20.70
2022-10-18T02:22:30.498Z,19.57
2022-10-18T02:25:35.653Z,18.67
2022-10-18T02:28:39.837Z,20.17
2022-10-18T02:31:50.318Z,19.50
2022-10-18T02:35:01.988Z,18.80
2022-10-18T02:38:07.617Z,19.02
2022-10-18T02:41:10.780Z,19.02
2022-10-18T02:44:13.767Z,18.07
2022-10-18T02:47:16.847Z,17.90
2022-10-18T02:50:23.515Z,17.25
2022-10-18T02:53:27.170Z,17.67
2022-10-18T02:56:30.273Z,18.05
2022-10-18T02:59:33.855Z,18.00
2022-10-18T03:02:37.641Z,17.33
2022-10-18T03:05:41.406Z,17.50
2022-10-18T03:08:44.477Z,16.83
2022-10-18T03:11:47.850Z,17.95
2022-10-18T03:14:51.069Z,17.43
2022-10-18T03:17:56.408Z,16.95
2022-10-18T03:20:59.514Z,16.92
2022-10-18T03:24:03.697Z,18.03
2022-10-18T03:27:06.817Z,16.95
2022-10-18T03:30:11.977Z,17.40
2022-10-18T03:33:18.694Z,16.62
2022-10-18T03:36:22.132Z,17.02
2022-10-18T03:39:25.291Z,16.77
2022-10-18T03:42:28.858Z,17.10
2022-10-18T03:45:32.024Z,16.10
2022-10-18T03:48:35.722Z,17.08
2022-10-18T03:51:38.799Z,18.92
2022-10-18T03:54:42.155Z,19.13
2022-10-18T03:57:45.088Z,17.70
2022-10-18T04:00:55.408Z,17.73
2022-10-18T04:03:58.804Z,16.98
2022-10-18T04:07:01.854Z,17.00
2022-10-18T04:10:05.662Z,18.48
2022-10-18T04:13:09.261Z,17.12
2022-10-18T04:16:12.958Z,17.50
2022-10-18T04:19:17.302Z,17.45
2022-10-18T04:22:21.177Z,17.73
2022-10-18T04:25:25.221Z,18.03
2022-10-18T04:28:36.094Z,17.25
2022-10-18T04:31:40.140Z,17.85
2022-10-18T04:37:51.466Z,19.70
2022-10-18T04:40:55.041Z,18.65
2022-10-18T04:43:58.222Z,17.85
2022-10-18T04:47:01.526Z,17.53
2022-10-18T04:50:05.689Z,18.12
2022-10-18T04:53:09.024Z,21.27
2022-10-18T04:56:12.450Z,20.87
2022-10-18T04:59:15.775Z,21.05
2022-10-18T05:02:43.587Z,20.90
2022-10-18T05:06:01.309Z,20.58
2022-10-18T05:09:06.824Z,21.65
2022-10-18T05:12:10.117Z,21.08
2022-10-18T05:15:21.715Z,22.17
2022-10-18T05:18:31.950Z,21.37
2022-10-18T05:21:45.655Z,21.95
2022-10-18T05:25:09.610Z,22.23
2022-10-18T05:28:38.347Z,21.90
2022-10-18T05:31:39.164Z,19.98
2022-10-18T05:34:43.026Z,20.48
2022-10-18T05:37:46.551Z,20.20
2022-10-18T05:40:54.331Z,19.42
2022-10-18T05:44:02.644Z,19.10
2022-10-18T05:47:08.113Z,20.77
2022-10-18T05:50:14.479Z,28.77
2022-10-18T05:53:35.693Z,31.40
2022-10-18T05:56:42.294Z,31.65
2022-10-18T05:59:47.579Z,23.87
2022-10-18T06:02:52.452Z,26.25
2022-10-18T06:06:06.234Z,24.00
2022-10-18T06:09:09.643Z,26.48
2022-10-18T06:12:13.419Z,29.23
2022-10-18T06:15:16.680Z,27.30
2022-10-18T06:18:20.157Z,27.20
2022-10-18T06:21:25.117Z,23.30
2022-10-18T06:24:28.768Z,23.77
2022-10-18T06:27:34.620Z,22.67
2022-10-18T06:30:38.468Z,20.57
2022-10-18T06:33:42.152Z,20.02
2022-10-18T06:36:45.562Z,21.12
2022-10-18T06:39:48.530Z,20.48
2022-10-18T06:43:00.231Z,20.10
2022-10-18T06:46:10.752Z,18.40
2022-10-18T06:49:16.734Z,17.75
2022-10-18T06:52:25.738Z,20.20
2022-10-18T06:55:31.484Z,19.67
2022-10-18T06:58:35.450Z,17.50
2022-10-18T07:01:39.082Z,16.37
2022-10-18T07:04:44.277Z,16.23
2022-10-18T07:07:47.517Z,14.57
2022-10-18T07:10:52.944Z,14.70
2022-10-18T07:14:05.062Z,13.43
2022-10-18T07:17:08.134Z,13.30
2022-10-18T07:20:13.089Z,14.23
2022-10-18T07:23:16.501Z,14.25
2022-10-18T07:26:25.739Z,16.37
2022-10-18T07:29:29.639Z,17.07
2022-10-18T07:32:32.972Z,16.73
2022-10-18T07:35:36.004Z,19.45
2022-10-18T07:38:40.055Z,18.98
2022-10-18T07:41:43.209Z,21.23
2022-10-18T07:44:46.654Z,20.30
2022-10-18T07:47:55.015Z,19.67
2022-10-18T07:51:00.986Z,19.67
2022-10-18T07:54:04.256Z,23.87
2022-10-18T07:57:07.609Z,23.15
2022-10-18T08:00:11.740Z,23.57
2022-10-18T08:03:14.674Z,20.55
2022-10-18T08:06:19.637Z,18.33
2022-10-18T08:09:22.701Z,16.50
2022-10-18T08:12:26.014Z,14.65
2022-10-18T08:15:29.130Z,13.87
2022-10-18T08:18:36.517Z,13.17
2022-10-18T08:21:39.522Z,13.20
2022-10-18T08:24:43.992Z,13.00
2022-10-18T08:27:47.149Z,12.68
2022-10-18T08:30:52.292Z,11.20
2022-10-18T08:34:00.508Z,11.97
2022-10-18T08:37:03.738Z,11.12
2022-10-18T08:40:11.994Z,10.98
2022-10-18T08:43:33.966Z,10.77
2022-10-18T08:46:41.380Z,10.83
2022-10-18T08:50:00.826Z,10.70
2022-10-18T08:53:24.154Z,10.57
2022-10-18T08:56:27.746Z,10.70
2022-10-18T08:59:41.809Z,11.05
2022-10-18T09:03:13.160Z,11.60
2022-10-18T09:06:33.032Z,11.10
2022-10-18T09:09:45.265Z,11.20
2022-10-18T09:13:04.157Z,11.38
2022-10-18T09:16:23.147Z,10.70
2022-10-18T09:19:43.714Z,11.30
2022-10-18T09:23:13.212Z,11.13
2022-10-18T09:26:22.682Z,10.20
2022-10-18T09:29:29.886Z,10.50
2022-10-18T09:32:53.658Z,10.20
2022-10-18T09:36:08.150Z,11.67
2022-10-18T09:39:23.915Z,10.63
2022-10-18T09:42:39.862Z,10.55
2022-10-18T09:45:45.892Z,10.60
2022-10-18T09:48:58.829Z,10.07
2022-10-18T09:52:08.446Z,10.80
2022-10-18T09:55:28.871Z,9.50
2022-10-18T09:58:46.395Z,10.32
2022-10-18T10:01:49.599Z,10.07
2022-10-18T10:04:57.092Z,9.23
2022-10-18T10:08:02.301Z,9.03
2022-10-18T10:11:05.779Z,9.07
2022-10-18T10:17:26.484Z,8.40
2022-10-18T10:20:50.616Z,8.27
2022-10-18T10:23:58.010Z,6.53
2022-10-18T10:27:07.222Z,6.13
2022-10-18T10:30:39.858Z,9.10
2022-10-18T10:33:47.004Z,6.78
2022-10-18T10:36:52.548Z,6.25
2022-10-18T10:40:20.536Z,6.70
2022-10-18T10:43:39.205Z,6.13
2022-10-18T10:46:43.635Z,5.70
2022-10-18T10:49:47.968Z,5.75
2022-10-18T10:52:51.677Z,5.62
2022-10-18T10:55:57.968Z,5.30
2022-10-18T10:59:09.166Z,5.67
2022-10-18T11:02:18.339Z,4.97
2022-10-18T11:05:27.211Z,5.10
2022-10-18T11:08:39.266Z,5.07
2022-10-18T11:11:55.292Z,6.37
2022-10-18T11:15:20.907Z,5.10
2022-10-18T11:18:33.689Z,5.00
2022-10-18T11:21:38.345Z,4.60
2022-10-18T11:24:41.766Z,5.00
2022-10-18T11:27:53.350Z,4.30
2022-10-18T11:31:33.635Z,4.83
2022-10-18T11:34:57.491Z,4.87
2022-10-18T11:38:24.314Z,4.75
2022-10-18T11:41:48.515Z,5.00
2022-10-18T11:45:08.480Z,4.77
2022-10-18T11:48:37.242Z,5.13
2022-10-18T11:52:07.894Z,4.45
2022-10-18T11:55:32.990Z,5.72
2022-10-18T11:59:07.693Z,4.65
2022-10-18T12:02:17.044Z,4.77
2022-10-18T12:05:23.989Z,4.07
2022-10-18T12:08:36.678Z,4.15
2022-10-18T12:11:46.890Z,4.20
2022-10-18T12:14:55.682Z,4.22
2022-10-18T12:18:03.744Z,4.10
2022-10-18T12:21:07.404Z,4.80
2022-10-18T12:24:19.950Z,4.57
2022-10-18T12:27:35.717Z,3.95
2022-10-18T12:31:17.902Z,3.97
2022-10-18T12:34:24.170Z,3.70
2022-10-18T12:37:58.685Z,3.87
2022-10-18T12:41:03.045Z,3.67
2022-10-18T12:44:18.137Z,4.30
2022-10-18T12:47:25.949Z,4.18
2022-10-18T12:50:36.887Z,4.43
2022-10-18T12:53:42.111Z,4.43
2022-10-18T12:56:46.914Z,4.20
2022-10-18T12:59:50.190Z,3.90
2022-10-18T13:03:19.173Z,4.12
2022-10-18T13:06:23.760Z,4.10
2022-10-18T13:09:37.545Z,4.17
2022-10-18T13:12:43.840Z,4.68
2022-10-18T13:15:54.020Z,4.12
2022-10-18T13:19:03.443Z,4.00
2022-10-18T13:22:33.911Z,4.33
2022-10-18T13:26:14.476Z,5.70
2022-10-18T13:29:36.393Z,4.60
2022-10-18T13:33:13.576Z,4.75
2022-10-18T13:36:21.798Z,5.75
2022-10-18T13:39:27.231Z,4.47
2022-10-18T13:42:33.385Z,4.57
2022-10-18T13:45:53.084Z,4.93
2022-10-18T13:49:20.272Z,6.32
2022-10-18T13:52:54.004Z,4.50
2022-10-18T13:56:36.115Z,4.40
2022-10-18T14:00:10.387Z,6.27
2022-10-18T14:07:03.975Z,4.65
2022-10-18T14:10:43.252Z,5.37
2022-10-18T14:13:52.424Z,4.37
2022-10-18T14:17:15.386Z,5.27
2022-10-18T14:20:29.544Z,9.23
2022-10-18T14:23:37.150Z,8.00
2022-10-18T14:26:40.548Z,4.97
2022-10-18T14:29:44.203Z,4.60
2022-10-18T14:32:54.722Z,8.00
2022-10-18T14:36:15.562Z,6.57
2022-10-18T14:39:24.196Z,7.32
2022-10-18T14:42:28.616Z,7.43
2022-10-18T14:45:31.878Z,9.87
2022-10-18T14:48:35.322Z,6.23
2022-10-18T14:51:42.422Z,9.40
2022-10-18T14:54:45.918Z,7.80
2022-10-18T14:57:49.481Z,7.65
2022-10-18T15:00:55.006Z,8.17
2022-10-18T15:04:01.028Z,10.33
2022-10-18T15:07:07.499Z,10.15
2022-10-18T15:10:18.266Z,10.32
2022-10-18T15:13:22.001Z,9.13
2022-10-18T15:16:31.059Z,7.73
2022-10-18T15:19:42.976Z,7.00
2022-10-18T15:22:47.002Z,6.37
2022-10-18T15:26:00.812Z,6.28
2022-10-18T15:29:06.828Z,6.68
2022-10-18T15:32:26.499Z,9.47
2022-10-18T15:35:29.939Z,6.80
2022-10-18T15:38:33.196Z,9.57
2022-10-18T15:41:38.701Z,10.75
2022-10-18T15:44:53.666Z,8.70
2022-10-18T15:48:06.169Z,8.13
2022-10-18T15:51:32.715Z,9.23
2022-10-18T15:54:36.314Z,7.43
2022-10-18T15:57:39.342Z,6.95
2022-10-18T16:00:46.166Z,8.45
2022-10-18T16:03:51.520Z,11.10
2022-10-18T16:06:56.110Z,11.70
2022-10-18T16:10:00.422Z,11.23
2022-10-18T16:13:03.478Z,11.65
2022-10-18T16:16:07.416Z,11.38
2022-10-18T16:19:15.745Z,13.23
2022-10-18T16:22:19.220Z,13.62
2022-10-18T16:25:22.642Z,15.52
2022-10-18T16:28:26.746Z,12.75
2022-10-18T16:31:33.488Z,16.23
2022-10-18T16:34:37.086Z,21.53
2022-10-18T16:37:41.146Z,20.20
2022-10-18T16:40:44.607Z,17.95
2022-10-18T16:43:49.586Z,17.77
2022-10-18T16:46:56.261Z,18.87
2022-10-18T16:50:05.602Z,20.17
2022-10-18T16:53:12.654Z,17.15
2022-10-18T16:56:19.034Z,19.12
2022-10-18T16:59:32.316Z,20.42
2022-10-18T17:02:35.658Z,22.17
2022-10-18T17:05:40.290Z,22.40
2022-10-18T17:08:43.788Z,22.98
2022-10-18T17:11:47.726Z,24.65
2022-10-18T17:14:51.434Z,23.70
2022-10-18T17:17:54.995Z,27.58
2022-10-18T17:21:02.962Z,26.70
2022-10-18T17:24:06.826Z,26.48
2022-10-18T17:27:12.179Z,24.77
2022-10-18T17:30:18.208Z,24.40
2022-10-18T17:33:22.786Z,26.25
2022-10-18T17:36:28.009Z,26.50
2022-10-18T17:39:33.654Z,27.87
2022-10-18T17:42:38.867Z,27.92
2022-10-18T17:45:56.449Z,31.17
2022-10-18T17:49:00.438Z,30.90
2022-10-18T17:52:06.913Z,36.93
2022-10-18T17:55:12.011Z,36.63
2022-10-18T17:58:16.229Z,36.75
2022-10-18T18:01:23.373Z,38.35
2022-10-18T18:04:28.413Z,41.20
2022-10-18T18:07:32.220Z,40.12
2022-10-18T18:10:36.663Z,36.58
2022-10-18T18:13:40.629Z,36.33
2022-10-18T18:16:47.332Z,35.92
2022-10-18T18:19:51.470Z,35.57
2022-10-18T18:22:55.913Z,35.55
2022-10-18T18:26:00.563Z,37.63
2022-10-18T18:29:05.770Z,35.90
2022-10-18T18:32:10.084Z,34.80
2022-10-18T18:35:15.529Z,37.15
2022-10-18T18:38:20.657Z,41.28
2022-10-18T18:41:27.102Z,41.65
2022-10-18T18:44:34.304Z,42.90
2022-10-18T18:47:39.366Z,40.42
2022-10-18T18:50:51.862Z,40.97
2022-10-18T18:53:55.981Z,41.83
2022-10-18T18:57:01.649Z,43.35
2022-10-18T19:00:07.507Z,42.00
2022-10-18T19:03:12.353Z,44.22
2022-10-18T19:06:20.353Z,47.10
2022-10-18T19:09:40.639Z,47.03
2022-10-18T19:13:13.974Z,46.07
2022-10-18T19:16:28.930Z,45.63
2022-10-18T19:19:33.765Z,49.17
2022-10-18T19:22:39.260Z,46.80
2022-10-18T19:25:46.241Z,44.50
2022-10-18T19:28:50.527Z,47.17
2022-10-18T19:31:58.231Z,49.15
2022-10-18T19:35:03.624Z,46.60
2022-10-18T19:38:07.724Z,47.70
2022-10-18T19:41:12.463Z,48.33
2022-10-18T19:44:17.905Z,47.92
2022-10-18T19:47:22.778Z,44.22
2022-10-18T19:50:28.606Z,45.80
2022-10-18T19:53:34.223Z,41.75
2022-10-18T19:56:43.124Z,42.55
2022-10-18T19:59:48.941Z,42.40
2022-10-18T20:02:54.305Z,40.30
2022-10-18T20:05:59.672Z,39.38
2022-10-18T20:09:03.562Z,38.72
2022-10-18T20:12:07.131Z,40.08
2022-10-18T20:15:10.813Z,40.97
2022-10-18T20:18:14.715Z,35.90
2022-10-18T20:21:18.037Z,37.40
2022-10-18T20:24:21.427Z,36.88
2022-10-18T20:27:24.825Z,34.38
2022-10-18T20:30:29.006Z,29.73
2022-10-18T20:33:35.123Z,28.77
2022-10-18T20:36:39.851Z,26.73
2022-10-18T20:39:43.380Z,27.65
2022-10-18T20:42:46.917Z,24.87
2022-10-18T20:45:56.831Z,25.92
2022-10-18T20:49:00.683Z,26.33
2022-10-18T20:52:04.086Z,24.20
2022-10-18T20:55:07.866Z,24.52
2022-10-18T20:58:12.040Z,23.90
2022-10-18T21:01:17.445Z,24.15
2022-10-18T21:04:21.161Z,21.62
2022-10-18T21:07:24.656Z,21.08
2022-10-18T21:10:30.150Z,20.27
2022-10-18T21:13:33.848Z,19.05
2022-10-18T21:16:38.558Z,20.92
2022-10-18T21:19:43.638Z,20.85
2022-10-18T21:22:46.765Z,21.12
2022-10-18T21:25:51.174Z,20.73
2022-10-18T21:29:00.694Z,21.12
2022-10-18T21:32:03.832Z,21.93
2022-10-18T21:35:08.237Z,22.48
2022-10-18T21:38:11.495Z,21.73
2022-10-18T21:41:18.143Z,21.45
2022-10-18T21:44:21.572Z,20.67
2022-10-18T21:47:24.806Z,19.20
2022-10-18T21:50:28.207Z,19.67
2022-10-18T21:53:31.545Z,17.98
2022-10-18T21:56:35.629Z,16.80
2022-10-18T21:59:38.796Z,16.70
2022-10-18T22:02:42.179Z,17.85
2022-10-18T22:05:45.439Z,18.15
2022-10-18T22:08:55.123Z,18.62
2022-10-18T22:11:59.146Z,18.15
2022-10-18T22:15:02.785Z,18.67
2022-10-18T22:18:07.086Z,20.77
2022-10-18T22:21:12.279Z,19.67
2022-10-18T22:24:15.685Z,18.45
2022-10-18T22:27:18.888Z,18.73
2022-10-18T22:30:22.655Z,19.40
2022-10-18T22:33:29.333Z,20.17
2022-10-18T22:36:34.623Z,20.55
2022-10-18T22:39:39.069Z,22.40
2022-10-18T22:42:42.449Z,22.95
2022-10-18T22:45:46.441Z,24.20
2022-10-18T22:48:50.178Z,23.95
2022-10-18T22:51:53.362Z,24.50
2022-10-18T22:54:57.040Z,22.97
2022-10-18T22:58:00.049Z,23.73
2022-10-18T23:01:09.844Z,23.90
2022-10-18T23:04:12.972Z,23.95
2022-10-18T23:07:16.412Z,22.90
2022-10-18T23:10:19.526Z,22.30
2022-10-18T23:13:24.301Z,21.42
2022-10-18T23:16:27.626Z,20.75
2022-10-18T23:19:30.994Z,21.77
2022-10-18T23:22:34.367Z,22.50
2022-10-18T23:25:38.710Z,21.08
2022-10-18T23:28:44.414Z,22.42
2022-10-18T23:31:47.805Z,22.25
2022-10-18T23:34:52.194Z,21.62
2022-10-18T23:37:55.695Z,22.02
2022-10-18T23:41:01.163Z,22.00
2022-10-18T23:44:04.601Z,21.37
2022-10-18T23:47:08.127Z,19.40
2022-10-18T23:50:15.005Z,21.65
2022-10-18T23:53:23.211Z,19.67
2022-10-18T23:56:26.625Z,22.02
2022-10-18T23:59:31.131Z,22.33
